Time;durP1;ratioP1;P1;durP2;ratioP2;P2;SDS_P1;SDS_P2;PMS_P1;PMS_P2;Temp;Humidity;BMP_temperature;BMP_pressure;BME280_temperature;BME280_humidity;BME280_pressure;Samples;Min_cycle;Max_cycle;Signal;HPM_P1;HPM_P2
2022/11/30 00:01:27;;;;;;;4.47;2.15;;;;;;;21.37;43.38;95044.53;4929609;28;20047;-64
2022/11/30 00:03:56;;;;;;;5.45;2.03;;;;;;;20.62;43.29;94932.69;4925564;29;20359;-62
2022/11/30 00:06:22;;;;;;;4.85;2.30;;;;;;;21.30;43.33;95040.34;4918215;29;20059;-63
2022/11/30 00:08:49;;;;;;;5.65;2.25;;;;;;;20.07;43.21;94851.31;4921166;29;20043;-63
2022/11/30 00:11:19;;;;;;;4.30;1.90;;;;;;;21.35;43.48;95047.72;4932698;29;20143;-63
2022/11/30 00:13:45;;;;;;;5.18;2.20;;;;;;;21.32;43.51;95048.72;4935939;29;20063;-64
2022/11/30 00:16:11;;;;;;;4.10;2.03;;;;;;;21.17;43.53;95031.94;4925887;29;20074;-64
2022/11/30 00:18:36;;;;;;;4.85;2.28;;;;;;;21.19;43.32;95056.59;4939619;29;20048;-63
2022/11/30 00:21:03;;;;;;;5.40;2.35;;;;;;;21.30;43.38;95056.63;4912122;29;20127;-63
2022/11/30 00:23:32;;;;;;;5.28;1.92;;;;;;;20.93;43.43;95000.34;4935140;28;20035;-64
2022/11/30 00:26:02;;;;;;;4.32;2.10;;;;;;;21.30;43.38;95061.31;4910392;29;20047;-64
2022/11/30 00:28:27;;;;;;;4.20;2.00;;;;;;;20.54;43.65;94950.72;4903751;29;20051;-65
2022/11/30 00:31:00;;;;;;;4.57;2.10;;;;;;;21.27;43.58;95057.63;4925345;29;20047;-63
2022/11/30 00:33:26;;;;;;;5.32;2.03;;;;;;;21.27;43.55;95068.47;4922531;29;20447;-65
2022/11/30 00:35:56;;;;;;;4.43;1.85;;;;;;;21.18;43.54;95055.16;4918856;29;20047;-64
2022/11/30 00:38:21;;;;;;;;;;;;;;;21.25;43.60;95070.94;4921222;28;20471;-64
2022/11/30 00:40:47;;;;;;;4.65;2.00;;;;;;;21.22;43.70;95055.63;4944166;28;19918;-63
2022/11/30 00:43:12;;;;;;;4.28;1.80;;;;;;;21.22;43.53;95061.06;4939902;29;20062;-62
2022/11/30 00:45:39;;;;;;;4.93;2.13;;;;;;;21.20;43.39;95052.66;4924084;29;20043;-64
2022/11/30 00:48:04;;;;;;;4.32;2.00;;;;;;;21.14;43.73;95043.78;4912578;29;20110;-63
2022/11/30 00:50:30;;;;;;;4.35;2.30;;;;;;;21.04;43.63;95028.97;4924396;29;20071;-64
2022/11/30 00:52:56;;;;;;;3.63;1.63;;;;;;;21.20;43.65;95052.66;4938764;29;20046;-63
2022/11/30 00:55:21;;;;;;;3.40;1.70;;;;;;;21.20;43.53;95079.81;4930452;29;20047;-66
2022/11/30 00:57:47;;;;;;;4.38;2.05;;;;;;;21.20;43.71;95052.66;4912863;29;20050;-64
2022/11/30 01:00:12;;;;;;;5.18;2.00;;;;;;;21.18;43.64;95054.38;4939951;28;20052;-65
2022/11/30 01:02:38;;;;;;;3.42;1.65;;;;;;;21.11;44.11;95035.88;4943429;29;20564;-63
2022/11/30 01:05:04;;;;;;;3.53;1.67;;;;;;;21.03;43.56;95032.91;4930245;29;20042;-63
2022/11/30 01:07:29;;;;;;;3.72;1.55;;;;;;;20.95;43.69;95027.72;4930533;29;20171;-63
2022/11/30 01:09:54;;;;;;;3.45;1.60;;;;;;;21.16;43.56;95040.56;4940743;29;20568;-65
2022/11/30 01:12:20;;;;;;;4.47;2.13;;;;;;;21.05;43.44;95030.44;4937420;28;20513;-66
2022/11/30 01:14:45;;;;;;;4.28;1.73;;;;;;;21.14;43.44;95043.78;4932329;28;20520;-64
2022/11/30 01:17:11;;;;;;;3.90;1.60;;;;;;;21.10;43.53;95035.13;4939670;28;20039;-64
2022/11/30 01:19:36;;;;;;;4.13;2.13;;;;;;;20.88;43.70;95015.41;4947687;29;20035;-65
2022/11/30 01:22:02;;;;;;;3.42;1.50;;;;;;;20.42;43.79;94946.50;4917205;29;20055;-66
2022/11/30 01:24:27;;;;;;;3.90;1.90;;;;;;;20.54;43.72;94989.41;4942546;29;20051;-63
2022/11/30 01:26:52;;;;;;;4.47;1.88;;;;;;;20.42;43.48;94935.66;4934584;29;20047;-64
2022/11/30 01:29:18;;;;;;;3.80;2.00;;;;;;;21.12;43.61;95043.53;4887079;29;20051;-62
2022/11/30 01:31:43;;;;;;;3.25;1.70;;;;;;;21.14;43.55;95043.03;4919285;29;20039;-65
2022/11/30 01:34:09;;;;;;;3.10;1.42;;;;;;;21.11;43.63;95044.75;4946122;28;20047;-65
2022/11/30 01:36:35;;;;;;;3.03;1.20;;;;;;;21.12;43.56;95046.25;4931810;29;20039;-64
2022/11/30 01:39:00;;;;;;;3.35;1.70;;;;;;;21.11;43.65;95038.59;4955904;28;20528;-67
2022/11/30 01:41:28;;;;;;;3.13;1.60;;;;;;;21.11;43.61;95044.03;4925888;28;20421;-62
2022/11/30 01:44:17;;;;;;;3.30;1.58;;;;;;;21.10;43.61;95043.28;4913610;29;20078;-64
2022/11/30 01:46:53;;;;;;;3.15;1.52;;;;;;;21.08;43.78;95045.75;4948383;28;20036;-63
2022/11/30 01:49:46;;;;;;;4.07;1.60;;;;;;;21.08;43.60;95040.31;4930303;29;20047;-63
2022/11/30 01:52:19;;;;;;;3.35;1.50;;;;;;;21.07;43.58;95038.81;4944362;29;20138;-65
2022/11/30 01:54:49;;;;;;;3.75;1.77;;;;;;;21.07;43.61;95049.69;4942685;29;20047;-63
2022/11/30 01:57:17;;;;;;;3.57;1.47;;;;;;;20.49;43.47;94954.91;4937537;29;20146;-65
2022/11/30 01:59:42;;;;;;;3.25;1.50;;;;;;;20.93;43.42;95013.91;4938585;29;20301;-64
2022/11/30 02:02:07;;;;;;;3.55;1.73;;;;;;;20.29;43.67;94921.81;4907736;29;20418;-64
2022/11/30 02:04:34;;;;;;;2.97;1.52;;;;;;;20.33;43.56;94927.75;4922405;28;20557;-64
2022/11/30 02:07:00;;;;;;;3.20;1.60;;;;;;;19.76;43.52;94841.84;4911146;29;20074;-64
2022/11/30 02:09:26;;;;;;;2.80;1.48;;;;;;;21.05;43.79;95027.72;4945326;28;20576;-63
2022/11/30 02:11:51;;;;;;;4.15;2.10;;;;;;;19.82;43.37;94837.19;4930020;29;20065;-64
2022/11/30 02:14:29;;;;;;;3.42;1.60;;;;;;;21.05;43.51;95025.00;4948670;28;20126;-68
2022/11/30 02:16:54;;;;;;;2.88;1.60;;;;;;;21.06;43.48;95020.31;4938028;28;20050;-64
2022/11/30 02:19:57;;;;;;;2.78;1.42;;;;;;;21.03;43.52;95027.50;4934038;28;20046;-64
2022/11/30 02:22:45;;;;;;;3.50;1.60;;;;;;;21.01;43.79;95024.50;4929275;28;20055;-63
2022/11/30 02:25:23;;;;;;;3.40;1.65;;;;;;;21.01;43.58;95029.94;4931670;28;20036;-64
2022/11/30 02:28:09;;;;;;;2.80;1.60;;;;;;;21.01;43.67;95029.94;4928617;28;20038;-64
2022/11/30 02:30:36;;;;;;;3.10;1.50;;;;;;;21.00;43.70;95020.34;4951758;28;20057;-63
2022/11/30 02:33:15;;;;;;;2.92;1.23;;;;;;;21.00;43.76;95027.72;4929399;29;20526;-65
2022/11/30 02:35:43;;;;;;;2.80;1.45;;;;;;;20.38;43.68;94929.72;4914534;29;20051;-64
2022/11/30 02:38:08;;;;;;;2.78;1.35;;;;;;;20.94;43.67;95012.66;4907798;28;20057;-64
2022/11/30 02:40:34;;;;;;;2.80;1.33;;;;;;;20.97;43.68;95018.59;4907642;28;20524;-64
2022/11/30 02:43:00;;;;;;;2.75;1.35;;;;;;;20.91;43.49;95002.78;4921755;29;20059;-63
2022/11/30 02:45:30;;;;;;;3.38;1.42;;;;;;;19.26;43.65;94748.94;4926741;29;20060;-64
2022/11/30 02:48:14;;;;;;;;;;;;;;;20.96;43.73;95017.13;4917587;29;20055;-66
2022/11/30 02:50:52;;;;;;;2.53;1.30;;;;;;;20.95;43.73;95004.03;4938514;28;19989;-63
2022/11/30 02:53:17;;;;;;;2.70;1.42;;;;;;;20.96;43.58;95005.53;4932017;29;20442;-63
2022/11/30 02:55:43;;;;;;;2.15;1.33;;;;;;;20.94;43.48;95016.16;4942802;28;20034;-63
2022/11/30 02:58:08;;;;;;;3.25;1.60;;;;;;;20.95;43.62;95014.16;4945266;28;20047;-62
2022/11/30 03:00:34;;;;;;;2.53;1.40;;;;;;;20.94;43.71;95012.66;4932806;28;20187;-65
2022/11/30 03:02:59;;;;;;;2.75;1.52;;;;;;;20.94;43.62;95007.25;4945671;28;20047;-65
2022/11/30 03:05:24;;;;;;;3.22;1.48;;;;;;;20.93;43.80;95011.22;4946654;28;20034;-65
2022/11/30 03:07:50;;;;;;;3.38;1.52;;;;;;;20.92;43.87;95015.88;4928928;29;20043;-65
2022/11/30 03:10:15;;;;;;;3.42;1.35;;;;;;;20.92;43.70;95015.16;4944134;28;20050;-64
2022/11/30 03:12:41;;;;;;;2.85;1.50;;;;;;;20.87;43.79;95003.06;4951236;28;20799;-63
2022/11/30 03:15:06;;;;;;;3.05;1.60;;;;;;;20.83;43.85;95001.81;4921089;29;20529;-63
2022/11/30 03:17:32;;;;;;;1.88;1.02;;;;;;;20.80;43.80;94991.94;4961007;28;20535;-66
2022/11/30 03:19:57;;;;;;;3.63;1.40;;;;;;;20.17;43.54;94903.31;4945554;28;20023;-63
2022/11/30 03:22:23;;;;;;;1.98;1.20;;;;;;;20.81;43.60;94998.88;4927055;29;20044;-66
2022/11/30 03:24:48;;;;;;;2.78;1.40;;;;;;;20.88;43.81;95009.97;4934799;29;20152;-63
2022/11/30 03:27:14;;;;;;;2.67;1.23;;;;;;;20.89;43.19;95016.13;4943038;29;20069;-64
2022/11/30 03:29:39;;;;;;;2.22;1.20;;;;;;;20.80;43.75;95002.78;4919710;29;20040;-64
2022/11/30 03:32:05;;;;;;;1.88;1.10;;;;;;;20.77;43.89;94996.38;4896431;29;20027;-64
2022/11/30 03:34:30;;;;;;;2.33;1.05;;;;;;;20.87;43.76;95007.75;4928396;29;20039;-62
2022/11/30 03:36:56;;;;;;;2.33;1.17;;;;;;;20.87;43.86;95005.03;4925906;29;20050;-65
2022/11/30 03:39:23;;;;;;;2.85;1.40;;;;;;;20.87;43.66;95018.59;4931522;29;20125;-65
2022/11/30 03:41:48;;;;;;;2.42;1.30;;;;;;;20.86;43.50;95006.25;4942764;28;20346;-63
2022/11/30 03:44:14;;;;;;;2.92;1.25;;;;;;;20.90;43.81;95017.63;4926934;28;20039;-63
2022/11/30 03:46:39;;;;;;;3.58;1.45;;;;;;;20.81;43.74;95036.84;4904999;29;20031;-65
2022/11/30 03:49:05;;;;;;;2.58;1.25;;;;;;;20.90;43.71;95017.63;4928854;29;20062;-63
2022/11/30 03:51:30;;;;;;;3.45;1.30;;;;;;;20.86;43.51;95019.81;4913370;29;20043;-63
2022/11/30 03:53:55;;;;;;;1.90;1.08;;;;;;;20.86;43.82;95055.84;4922799;28;20047;-63
2022/11/30 03:56:21;;;;;;;2.53;1.13;;;;;;;20.86;43.72;95022.53;4932642;28;20070;-63
2022/11/30 03:58:46;;;;;;;2.83;1.50;;;;;;;20.75;43.75;95011.69;4944825;29;20035;-65
2022/11/30 04:01:16;;;;;;;1.95;1.00;;;;;;;20.85;43.68;95026.47;4941968;29;20725;-64
2022/11/30 04:03:42;;;;;;;3.28;1.27;;;;;;;20.78;44.04;95013.41;4910653;29;20081;-63
2022/11/30 04:06:09;;;;;;;2.42;0.95;;;;;;;20.78;43.56;95022.28;4925974;29;20516;-65
2022/11/30 04:08:34;;;;;;;2.58;1.15;;;;;;;20.80;43.82;95019.09;4897094;29;20444;-66
2022/11/30 04:11:00;;;;;;;2.30;0.98;;;;;;;20.82;43.81;95027.47;4938423;29;20039;-64
2022/11/30 04:13:27;;;;;;;2.00;1.00;;;;;;;19.97;43.55;94895.41;4943227;28;20056;-64
2022/11/30 04:15:52;;;;;;;2.25;1.13;;;;;;;20.68;43.96;94996.59;4905654;29;20099;-64
2022/11/30 04:18:18;;;;;;;2.08;1.02;;;;;;;20.81;43.84;95047.72;4903004;29;20047;-63
2022/11/30 04:20:44;;;;;;;2.28;1.00;;;;;;;20.80;43.68;95038.06;4909556;29;20051;-64
2022/11/30 04:23:09;;;;;;;1.42;1.00;;;;;;;20.80;43.69;95035.38;4918396;29;20139;-66
2022/11/30 04:25:41;;;;;;;2.13;1.08;;;;;;;19.96;43.68;94920.28;4924506;29;20040;-63
2022/11/30 04:28:07;;;;;;;2.15;0.88;;;;;;;20.57;43.60;95012.13;4927262;29;20206;-64
2022/11/30 04:30:33;;;;;;;3.10;1.23;;;;;;;20.78;43.96;95043.25;4912571;28;20574;-66
2022/11/30 04:32:58;;;;;;;1.73;0.90;;;;;;;20.79;43.65;95047.44;4920777;29;20047;-63
2022/11/30 04:35:24;;;;;;;1.85;1.08;;;;;;;20.14;43.82;94953.81;4921126;29;20039;-64
2022/11/30 04:37:49;;;;;;;2.55;1.15;;;;;;;20.77;43.79;95044.50;4919336;29;20069;-65
2022/11/30 04:40:14;;;;;;;2.40;1.02;;;;;;;20.76;43.66;95034.84;4939480;28;20055;-63
2022/11/30 04:42:40;;;;;;;1.92;1.10;;;;;;;20.73;43.84;95014.13;4940872;29;20078;-65
2022/11/30 04:45:06;;;;;;;1.58;0.88;;;;;;;20.97;43.56;95034.16;4916451;29;20043;-63
2022/11/30 04:47:32;;;;;;;2.65;0.75;;;;;;;21.05;43.60;95025.00;4917809;28;20165;-65
2022/11/30 04:49:57;;;;;;;2.05;0.85;;;;;;;20.82;43.37;94973.19;4937931;28;20035;-65
2022/11/30 04:52:23;;;;;;;4.20;1.00;;;;;;;21.36;43.29;95059.31;4930252;28;20044;-63
2022/11/30 04:54:48;;;;;;;1.58;0.80;;;;;;;21.32;43.21;95032.41;4936396;28;20043;-62
2022/11/30 04:57:13;;;;;;;4.25;1.10;;;;;;;21.41;43.20;95042.31;4932206;28;20444;-63
2022/11/30 04:59:39;;;;;;;2.47;0.98;;;;;;;21.02;43.04;94971.72;4931992;28;20665;-65
2022/11/30 05:02:04;;;;;;;2.03;0.90;;;;;;;21.56;43.09;95040.81;4914267;28;20042;-64
2022/11/30 05:04:30;;;;;;;1.35;0.65;;;;;;;21.71;42.84;95041.28;4926714;28;20047;-63
2022/11/30 05:06:55;;;;;;;1.65;0.95;;;;;;;21.93;42.48;95042.72;4919346;28;20055;-62
2022/11/30 05:09:21;;;;;;;2.55;0.88;;;;;;;21.93;41.84;95042.72;4931600;28;20036;-63
2022/11/30 05:11:47;;;;;;;1.67;1.20;;;;;;;21.84;42.43;95033.34;4936788;28;20043;-63
2022/11/30 05:14:13;;;;;;;2.00;1.00;;;;;;;21.40;42.41;94951.91;4930718;28;20056;-62
2022/11/30 05:16:38;;;;;;;1.35;0.70;;;;;;;21.76;42.37;95005.19;4934152;28;20519;-62
2022/11/30 05:19:04;;;;;;;2.17;0.90;;;;;;;22.29;42.03;95052.50;4928249;28;20079;-64
2022/11/30 05:21:29;;;;;;;2.53;0.80;;;;;;;22.40;41.89;95068.06;4929089;28;20492;-64
2022/11/30 05:23:55;;;;;;;1.52;0.80;;;;;;;22.52;41.79;95053.88;4943787;28;20052;-64
2022/11/30 05:26:20;;;;;;;1.92;0.90;;;;;;;22.64;40.94;95049.88;4944236;28;20058;-63
2022/11/30 05:28:45;;;;;;;1.40;0.73;;;;;;;22.58;41.45;95046.44;4947194;29;20042;-62
2022/11/30 05:31:11;;;;;;;1.80;0.90;;;;;;;22.09;41.88;94967.75;4940795;28;20089;-63
2022/11/30 05:33:36;;;;;;;1.90;0.90;;;;;;;22.67;41.07;95048.84;4939886;28;20050;-63
2022/11/30 05:36:02;;;;;;;2.55;0.90;;;;;;;22.76;41.15;95045.84;4923832;29;20504;-67
2022/11/30 05:38:27;;;;;;;1.40;0.63;;;;;;;22.75;40.91;95049.78;4929017;28;20043;-64
2022/11/30 05:41:01;;;;;;;1.45;0.80;;;;;;;22.85;40.70;95048.25;4940909;28;20054;-65
2022/11/30 05:43:27;;;;;;;1.25;0.70;;;;;;;22.90;40.51;95051.69;4925362;29;20047;-63
2022/11/30 05:46:01;;;;;;;2.13;0.70;;;;;;;22.99;40.77;95059.59;4918597;29;20055;-63
2022/11/30 05:48:26;;;;;;;2.08;0.80;;;;;;;23.01;40.27;95057.09;4933700;29;20055;-62
2022/11/30 05:50:52;;;;;;;1.40;0.90;;;;;;;22.97;40.77;95045.75;4921809;29;20580;-64
2022/11/30 05:53:17;;;;;;;1.52;0.70;;;;;;;23.10;40.16;95070.41;4937400;28;20040;-63
2022/11/30 05:55:43;;;;;;;1.10;0.57;;;;;;;22.63;40.31;94977.63;4929728;29;20039;-63
2022/11/30 05:58:08;;;;;;;1.55;0.88;;;;;;;23.23;40.45;95065.13;4936857;28;20325;-63
2022/11/30 06:00:34;;;;;;;2.70;0.77;;;;;;;23.13;40.21;95063.94;4933014;29;20138;-69
2022/11/30 06:02:59;;;;;;;1.52;0.70;;;;;;;23.16;40.52;95084.72;4958634;28;20082;-64
2022/11/30 06:05:25;;;;;;;1.10;0.73;;;;;;;23.16;40.36;95062.19;4943682;29;20039;-64
2022/11/30 06:07:51;;;;;;;2.83;0.80;;;;;;;23.15;39.85;95077.81;4926525;29;20089;-64
2022/11/30 06:10:16;;;;;;;1.67;0.70;;;;;;;22.96;39.72;95055.16;4913261;29;20055;-64
2022/11/30 06:12:42;;;;;;;1.33;0.60;;;;;;;23.02;40.33;95080.38;4944054;29;20064;-63
2022/11/30 06:15:07;;;;;;;1.20;0.57;;;;;;;23.24;40.04;95096.53;4940208;29;20062;-63
2022/11/30 06:17:34;;;;;;;1.63;0.70;;;;;;;23.21;40.25;95086.66;4912595;29;20046;-64
2022/11/30 06:19:59;;;;;;;2.97;0.70;;;;;;;23.37;39.70;95096.72;4941198;28;20066;-64
2022/11/30 06:22:25;;;;;;;3.08;0.70;;;;;;;23.64;39.81;95106.69;4931669;28;20044;-64
2022/11/30 06:24:50;;;;;;;2.05;0.70;;;;;;;23.54;39.68;95097.31;4937680;28;20074;-62
2022/11/30 06:27:16;;;;;;;1.52;0.40;;;;;;;23.67;39.46;95089.31;4937568;28;20052;-61
2022/11/30 06:29:41;;;;;;;1.92;0.60;;;;;;;23.73;39.48;95087.28;4907989;29;20043;-62
2022/11/30 06:32:06;;;;;;;1.52;0.75;;;;;;;23.26;39.63;95034.13;4897139;29;20488;-61
2022/11/30 06:34:32;;;;;;;3.83;0.70;;;;;;;23.50;39.60;95089.41;4912899;29;20027;-62
2022/11/30 06:36:57;;;;;;;1.40;0.70;;;;;;;23.50;39.63;95097.59;4922961;29;20139;-62
2022/11/30 06:39:23;;;;;;;1.65;0.70;;;;;;;23.56;39.87;95090.13;4911381;29;20058;-64
2022/11/30 06:41:48;;;;;;;2.35;0.50;;;;;;;23.65;39.19;95097.25;4901486;29;20079;-61
2022/11/30 06:44:14;;;;;;;2.00;0.60;;;;;;;23.70;39.26;95088.28;4898199;29;20520;-61
2022/11/30 06:46:40;;;;;;;2.53;0.65;;;;;;;23.80;39.19;95097.63;4910370;29;20114;-62
2022/11/30 06:49:06;;;;;;;2.67;0.70;;;;;;;23.79;38.67;95094.16;4916599;28;20136;-61
2022/11/30 06:51:32;;;;;;;3.25;0.52;;;;;;;23.63;39.04;95110.63;4910532;28;20048;-63
2022/11/30 06:53:58;;;;;;;1.80;0.50;;;;;;;23.44;39.33;95071.63;4929933;28;20988;-62
2022/11/30 06:56:23;;;;;;;1.60;0.52;;;;;;;23.75;38.99;95084.75;4913631;29;20692;-63
2022/11/30 06:58:49;;;;;;;1.55;0.60;;;;;;;23.70;38.91;95089.03;4914924;28;20043;-62
2022/11/30 07:01:14;;;;;;;0.90;0.50;;;;;;;23.95;38.49;95090.53;4897687;29;20589;-63
2022/11/30 07:03:40;;;;;;;1.00;0.50;;;;;;;24.13;38.37;95104.22;4925999;29;20055;-63
2022/11/30 07:06:12;;;;;;;1.65;0.77;;;;;;;24.29;37.96;95089.69;4926263;29;20051;-61
2022/11/30 07:08:38;;;;;;;1.77;0.50;;;;;;;24.46;38.09;95090.97;4912320;29;20050;-65
2022/11/30 07:11:04;;;;;;;1.30;0.60;;;;;;;23.34;37.95;94908.97;4918287;29;20035;-62
2022/11/30 07:13:30;;;;;;;1.23;0.68;;;;;;;24.55;37.65;95095.34;4886062;29;20060;-62
2022/11/30 07:15:55;;;;;;;0.90;0.50;;;;;;;24.55;37.76;95101.53;4891188;29;20059;-62
2022/11/30 07:18:21;;;;;;;0.65;0.40;;;;;;;24.49;37.87;95091.94;4883687;29;20063;-63
2022/11/30 07:20:46;;;;;;;1.33;0.57;;;;;;;24.47;37.69;95083.53;4890346;29;20061;-61
2022/11/30 07:26:08;;;;;;;0.85;0.38;;;;;;;24.02;38.61;95103.59;4918010;29;20058;-61
2022/11/30 07:28:38;;;;;;;1.52;0.60;;;;;;;24.00;38.59;95101.38;4930338;29;20043;-62
2022/11/30 07:31:22;;;;;;;;;;;;;;;24.15;38.38;95101.72;4885633;29;20062;-61
2022/11/30 07:33:48;;;;;;;2.08;0.65;;;;;;;24.33;38.07;95095.59;4923846;29;19929;-63
2022/11/30 07:36:14;;;;;;;0.95;0.47;;;;;;;24.31;38.19;95098.09;4904150;29;20043;-62
2022/11/30 07:38:39;;;;;;;0.95;0.40;;;;;;;24.27;38.01;95113.25;4915375;29;20058;-63
2022/11/30 07:41:05;;;;;;;1.50;0.50;;;;;;;24.08;38.44;95096.84;4910358;29;20082;-62
2022/11/30 07:43:31;;;;;;;0.90;0.47;;;;;;;24.01;38.67;95091.94;4879300;29;20060;-61
2022/11/30 07:45:57;;;;;;;1.40;0.50;;;;;;;24.04;38.57;95093.66;4891304;29;20461;-63
2022/11/30 07:48:23;;;;;;;2.05;0.50;;;;;;;23.97;38.77;95080.56;4897926;29;20040;-60
2022/11/30 07:50:48;;;;;;;1.52;0.60;;;;;;;23.93;38.73;95085.59;4900836;29;20072;-60
2022/11/30 07:53:14;;;;;;;0.85;0.40;;;;;;;23.86;38.81;95068.31;4917910;29;20080;-61
2022/11/30 07:55:40;;;;;;;1.23;0.50;;;;;;;23.84;39.00;95076.25;4913712;29;20039;-62
2022/11/30 07:58:05;;;;;;;1.25;0.40;;;;;;;23.86;38.71;95097.06;4896349;29;20217;-62
2022/11/30 08:00:31;;;;;;;1.70;0.57;;;;;;;23.77;39.23;95087.75;4893276;29;20051;-62
2022/11/30 08:02:56;;;;;;;0.75;0.50;;;;;;;23.86;38.82;95090.13;4889947;29;20060;-61
2022/11/30 08:05:22;;;;;;;1.27;0.50;;;;;;;23.75;39.19;95090.22;4920347;28;20027;-61
2022/11/30 08:07:51;;;;;;;1.52;0.68;;;;;;;23.10;39.42;94988.69;4897057;29;20124;-61
2022/11/30 08:10:18;;;;;;;1.03;0.40;;;;;;;23.11;39.37;94990.16;4899511;29;20051;-63
2022/11/30 08:12:43;;;;;;;1.25;0.50;;;;;;;23.68;39.52;95077.16;4913256;29;20528;-61
2022/11/30 08:15:09;;;;;;;1.05;0.45;;;;;;;23.71;39.34;95084.31;4889035;29;20070;-62
2022/11/30 08:17:35;;;;;;;0.73;0.40;;;;;;;23.67;39.57;95089.31;4896868;29;20095;-62
2022/11/30 08:20:00;;;;;;;1.38;0.50;;;;;;;23.58;39.67;95086.88;4911780;29;20050;-63
2022/11/30 08:22:26;;;;;;;1.40;0.57;;;;;;;23.49;39.77;95084.47;4878703;29;20060;-63
2022/11/30 08:24:51;;;;;;;0.85;0.40;;;;;;;23.50;39.64;95092.16;4889850;29;20055;-62
2022/11/30 08:27:17;;;;;;;0.60;0.40;;;;;;;23.50;39.52;95080.50;4879738;29;20056;-62
2022/11/30 08:29:42;;;;;;;1.00;0.52;;;;;;;23.55;40.07;95098.78;4893990;29;20033;-63
2022/11/30 08:32:08;;;;;;;0.80;0.43;;;;;;;23.50;39.65;95089.41;4912051;29;20102;-61
2022/11/30 08:34:33;;;;;;;1.25;0.40;;;;;;;22.62;39.83;94965.25;4936181;29;20204;-64
2022/11/30 08:36:59;;;;;;;1.42;0.47;;;;;;;23.45;39.37;95094.91;4931627;29;20118;-60
2022/11/30 08:39:26;;;;;;;0.73;0.40;;;;;;;23.33;39.46;95087.31;4915956;29;20055;-61
2022/11/30 08:41:52;;;;;;;0.90;0.50;;;;;;;23.43;39.54;95100.13;4931341;29;20110;-62
2022/11/30 08:44:18;;;;;;;1.00;0.50;;;;;;;23.36;40.04;95092.50;4881255;29;20035;-61
2022/11/30 08:46:43;;;;;;;0.80;0.50;;;;;;;23.35;39.54;95096.47;4899520;29;20102;-63
2022/11/30 08:49:09;;;;;;;1.23;0.50;;;;;;;23.27;39.82;95068.28;4909360;29;20056;-63
2022/11/30 08:51:35;;;;;;;0.90;0.43;;;;;;;23.25;39.95;95076.22;4896403;29;20052;-64
2022/11/30 08:54:00;;;;;;;0.75;0.47;;;;;;;22.66;39.71;94985.53;4904025;29;20745;-61
2022/11/30 08:56:26;;;;;;;1.35;0.50;;;;;;;23.32;39.94;95097.50;4902856;29;20056;-62
2022/11/30 08:58:53;;;;;;;0.88;0.50;;;;;;;23.28;39.95;95107.91;4910126;29;20023;-61
2022/11/30 09:01:23;;;;;;;1.02;0.40;;;;;;;23.27;39.97;95090.09;4891343;29;20088;-63
2022/11/30 09:03:51;;;;;;;0.82;0.30;;;;;;;22.66;39.55;94998.38;4878222;29;20414;-62
2022/11/30 09:06:18;;;;;;;0.95;0.50;;;;;;;23.05;39.82;95073.91;4891686;29;20063;-62
2022/11/30 09:08:45;;;;;;;1.00;0.50;;;;;;;23.08;40.24;95078.34;4893015;29;20146;-63
2022/11/30 09:11:15;;;;;;;1.48;0.40;;;;;;;22.73;40.14;95030.50;4907591;29;20121;-66
2022/11/30 09:13:41;;;;;;;;;;;;;;;23.27;39.83;95095.53;4915945;29;20062;-63
2022/11/30 09:16:07;;;;;;;1.00;0.50;;;;;;;23.27;40.24;95100.97;4912497;29;19922;-60
2022/11/30 09:18:32;;;;;;;0.95;0.43;;;;;;;23.23;39.67;95099.78;4913478;29;20060;-63
2022/11/30 09:20:59;;;;;;;1.58;0.50;;;;;;;23.20;39.88;95107.00;4918452;29;20366;-61
2022/11/30 09:23:25;;;;;;;1.23;0.50;;;;;;;23.02;40.17;95072.19;4928040;28;20547;-64
2022/11/30 09:25:58;;;;;;;0.82;0.50;;;;;;;23.14;39.93;95103.56;4928320;29;20115;-62
2022/11/30 09:28:23;;;;;;;1.33;0.57;;;;;;;23.04;40.16;95088.75;4898023;29;20083;-64
2022/11/30 09:30:49;;;;;;;0.85;0.40;;;;;;;23.10;39.91;95103.09;4900696;29;20043;-61
2022/11/30 09:33:14;;;;;;;1.67;0.75;;;;;;;23.13;40.26;95107.53;4908553;29;20644;-62
2022/11/30 09:35:40;;;;;;;0.82;0.47;;;;;;;23.16;40.12;95114.69;4920774;29;20047;-62
2022/11/30 09:38:05;;;;;;;0.80;0.40;;;;;;;23.15;40.09;95132.28;4917475;29;20050;-64
2022/11/30 09:40:31;;;;;;;1.10;0.50;;;;;;;23.06;39.93;95097.19;4899846;29;20036;-64
2022/11/30 09:43:08;;;;;;;1.35;0.57;;;;;;;23.08;40.15;95110.31;4930214;28;20549;-62
2022/11/30 09:45:33;;;;;;;1.15;0.50;;;;;;;23.12;40.18;95106.06;4935068;28;20047;-60
2022/11/30 09:48:08;;;;;;;1.02;0.60;;;;;;;23.09;40.25;95112.53;4919316;29;20052;-64
2022/11/30 09:50:38;;;;;;;1.38;0.60;;;;;;;23.03;40.26;95106.38;4892436;29;20105;-62
2022/11/30 09:53:05;;;;;;;1.15;0.50;;;;;;;23.02;40.19;95107.59;4923124;29;20036;-62
2022/11/30 09:55:33;;;;;;;0.70;0.40;;;;;;;22.87;40.10;95090.09;4906338;29;20044;-62
2022/11/30 09:58:02;;;;;;;0.93;0.35;;;;;;;23.13;40.29;95112.97;4903067;29;20052;-62
2022/11/30 10:00:28;;;;;;;0.93;0.50;;;;;;;23.09;40.36;95100.88;4914343;28;20111;-66
2022/11/30 10:02:55;;;;;;;1.23;0.50;;;;;;;23.11;40.08;95104.56;4916390;28;20428;-64
2022/11/30 10:05:43;;;;;;;0.93;0.40;;;;;;;23.12;40.17;95100.63;4917343;29;20058;-62
2022/11/30 10:08:31;;;;;;;0.60;0.40;;;;;;;23.07;40.35;95093.19;4927687;28;20066;-62
2022/11/30 10:11:34;;;;;;;0.93;0.40;;;;;;;23.04;40.35;95096.19;4932539;28;20500;-63
2022/11/30 10:14:18;;;;;;;1.27;0.50;;;;;;;23.05;40.17;95101.16;4915250;29;20146;-63
2022/11/30 10:16:56;;;;;;;1.13;0.50;;;;;;;23.08;40.45;95094.69;4923925;29;20046;-61
2022/11/30 10:19:40;;;;;;;0.70;0.40;;;;;;;23.10;40.15;95086.00;4901590;29;20832;-61
2022/11/30 10:22:27;;;;;;;0.65;0.40;;;;;;;23.04;40.45;95088.75;4912318;29;20120;-60
2022/11/30 10:25:02;;;;;;;1.38;0.60;;;;;;;22.96;40.49;95093.28;4912809;29;20059;-63
2022/11/30 10:27:49;;;;;;;1.08;0.40;;;;;;;23.07;40.35;95082.31;4914567;29;20055;-62
2022/11/30 10:30:21;;;;;;;1.20;0.50;;;;;;;23.11;40.05;95071.88;4924518;28;20460;-62
2022/11/30 10:32:51;;;;;;;1.00;0.50;;;;;;;23.17;39.79;95074.56;4911200;29;20103;-63
2022/11/30 10:35:28;;;;;;;0.93;0.50;;;;;;;23.14;40.37;95073.59;4912483;29;20032;-62
2022/11/30 10:37:54;;;;;;;1.35;0.52;;;;;;;23.03;40.51;95070.97;4913065;29;20032;-62
2022/11/30 10:40:31;;;;;;;1.08;0.50;;;;;;;23.34;39.79;95073.19;4909308;29;20043;-66
2022/11/30 10:43:26;;;;;;;0.70;0.40;;;;;;;22.98;39.97;95017.25;4895498;29;20527;-66
2022/11/30 10:45:52;;;;;;;1.42;0.50;;;;;;;23.50;39.49;95064.16;4930578;28;20051;-64
2022/11/30 10:48:23;;;;;;;0.73;0.43;;;;;;;23.56;39.53;95078.47;4908888;29;20062;-63
2022/11/30 10:50:48;;;;;;;0.68;0.25;;;;;;;23.63;39.25;95072.44;4911116;29;20044;-63
2022/11/30 10:53:14;;;;;;;1.30;0.60;;;;;;;23.60;39.12;95073.47;4910839;29;20143;-62
2022/11/30 10:55:44;;;;;;;0.82;0.50;;;;;;;23.52;38.99;95069.81;4907918;29;20043;-65
2022/11/30 10:58:19;;;;;;;1.33;0.60;;;;;;;23.57;38.88;95063.59;4923252;29;20048;-64
2022/11/30 11:00:54;;;;;;;1.05;0.60;;;;;;;23.84;38.64;95068.06;4893275;29;20087;-64
2022/11/30 11:03:24;;;;;;;1.05;0.50;;;;;;;23.81;39.00;95060.91;4902432;29;20036;-63
2022/11/30 11:06:04;;;;;;;1.00;0.50;;;;;;;23.83;38.80;95059.16;4887725;29;20055;-63
2022/11/30 11:08:29;;;;;;;1.02;0.63;;;;;;;23.90;38.43;95072.97;4921095;29;20071;-61
2022/11/30 11:10:55;;;;;;;1.23;0.50;;;;;;;23.98;38.22;95052.06;4912044;29;20525;-65
2022/11/30 11:13:40;;;;;;;1.00;0.50;;;;;;;23.39;38.51;94947.03;4925462;29;20051;-66
2022/11/30 11:16:10;;;;;;;0.82;0.43;;;;;;;23.97;38.19;95042.38;4922948;29;20047;-62
2022/11/30 11:18:36;;;;;;;2.65;0.40;;;;;;;23.98;38.03;95049.31;4897559;29;20130;-61
2022/11/30 11:21:11;;;;;;;0.90;0.50;;;;;;;24.04;38.33;95047.28;4915259;29;20061;-63
2022/11/30 11:23:37;;;;;;;1.02;0.60;;;;;;;24.20;38.31;95043.63;4921627;28;20115;-61
2022/11/30 11:26:03;;;;;;;1.05;0.47;;;;;;;24.07;38.37;95048.97;4912416;29;20068;-62
2022/11/30 11:28:29;;;;;;;1.75;0.40;;;;;;;23.98;37.96;95034.97;4915021;29;20066;-63
2022/11/30 11:30:55;;;;;;;1.23;0.47;;;;;;;24.05;38.03;95065.13;4912668;29;20533;-63
2022/11/30 11:33:27;;;;;;;1.05;0.40;;;;;;;24.42;37.57;95046.13;4921798;29;20067;-63
2022/11/30 11:36:04;;;;;;;0.98;0.40;;;;;;;24.43;37.55;95047.59;4912925;29;20048;-63
2022/11/30 11:38:38;;;;;;;1.33;0.57;;;;;;;24.45;37.49;95045.09;4931792;28;20094;-62
2022/11/30 11:41:22;;;;;;;1.30;0.68;;;;;;;24.49;38.10;95048.28;4925615;29;20139;-63